createdAt,value
2023-06-16T00:04:13.138Z,1013.58
2023-06-16T00:09:17.384Z,1013.57
2023-06-16T00:14:15.421Z,1013.54
2023-06-16T00:19:15.561Z,1013.53
2023-06-16T00:24:14.730Z,1013.48
2023-06-16T00:29:15.864Z,1013.46
2023-06-16T00:34:16.909Z,1013.53
2023-06-16T00:39:18.079Z,1013.51
2023-06-16T00:44:19.140Z,1013.61
2023-06-16T00:49:24.103Z,1013.51
2023-06-16T00:54:21.201Z,1013.49
2023-06-16T00:59:22.455Z,1013.51
2023-06-16T01:04:24.508Z,1013.56
2023-06-16T01:09:24.579Z,1013.56
2023-06-16T01:14:23.638Z,1013.60
2023-06-16T01:19:26.691Z,1013.63
2023-06-16T01:24:25.878Z,1013.72
2023-06-16T01:29:27.963Z,1013.75
2023-06-16T01:34:28.026Z,1013.70
2023-06-16T01:39:27.139Z,1013.56
2023-06-16T01:44:28.187Z,1013.67
2023-06-16T01:49:29.322Z,1013.60
2023-06-16T01:54:30.386Z,1013.57
2023-06-16T01:59:31.416Z,1013.50
2023-06-16T02:04:32.612Z,1013.58
2023-06-16T02:09:34.625Z,1013.52
2023-06-16T02:14:33.746Z,1013.51
2023-06-16T02:19:34.809Z,1013.52
2023-06-16T02:24:35.929Z,1013.57
2023-06-16T02:29:37.055Z,1013.61
2023-06-16T02:34:38.133Z,1013.73
2023-06-16T02:39:40.224Z,1013.80
2023-06-16T02:44:40.295Z,1013.80
2023-06-16T02:49:39.452Z,1013.84
2023-06-16T02:54:41.505Z,1013.87
2023-06-16T02:59:40.885Z,1013.91
2023-06-16T03:04:41.895Z,1013.99
2023-06-16T03:09:43.010Z,1014.04
2023-06-16T03:14:44.163Z,1013.98
2023-06-16T03:19:44.216Z,1013.98
2023-06-16T03:24:45.339Z,1014.04
2023-06-16T03:29:46.427Z,1013.90
2023-06-16T03:34:47.492Z,1014.00
2023-06-16T03:39:48.564Z,1014.09
2023-06-16T03:44:49.632Z,1014.19
2023-06-16T03:49:50.668Z,1014.31
2023-06-16T03:54:51.906Z,1014.29
2023-06-16T03:59:53.058Z,1014.42
2023-06-16T04:04:55.234Z,1014.46
2023-06-16T04:09:55.206Z,1014.45
2023-06-16T04:14:55.298Z,1014.40
2023-06-16T04:19:54.367Z,1014.41
2023-06-16T04:24:55.578Z,1014.46
2023-06-16T04:29:56.617Z,1014.34
2023-06-16T04:34:57.719Z,1014.45
2023-06-16T04:39:59.156Z,1014.42
2023-06-16T04:45:00.407Z,1014.35
2023-06-16T04:50:02.465Z,1014.36
2023-06-16T04:55:01.491Z,1014.42
2023-06-16T05:00:04.604Z,1014.44
2023-06-16T05:05:04.677Z,1014.37
2023-06-16T05:10:03.755Z,1014.45
2023-06-16T05:15:06.875Z,1014.53
2023-06-16T05:20:05.995Z,1014.51
2023-06-16T05:25:07.019Z,1014.53
2023-06-16T05:30:08.040Z,1014.53
2023-06-16T05:35:09.170Z,1014.50
2023-06-16T05:40:10.370Z,1014.46
2023-06-16T05:45:11.391Z,1014.56
2023-06-16T05:50:13.474Z,1014.60
2023-06-16T05:55:12.619Z,1014.54
2023-06-16T06:00:14.629Z,1014.56
2023-06-16T06:05:13.679Z,1014.68
2023-06-16T06:10:14.802Z,1014.67
2023-06-16T06:15:16.971Z,1014.68
2023-06-16T06:20:16.082Z,1014.65
2023-06-16T06:25:17.378Z,1014.66
2023-06-16T06:30:18.722Z,1014.74
2023-06-16T06:35:18.048Z,1014.81
2023-06-16T06:40:19.233Z,1014.88
2023-06-16T06:45:20.323Z,1014.90
2023-06-16T06:50:21.752Z,1014.92
2023-06-16T06:55:20.959Z,1014.91
2023-06-16T07:00:24.125Z,1014.98
2023-06-16T07:05:23.204Z,1014.97
2023-06-16T07:10:24.295Z,1015.01
2023-06-16T07:15:26.375Z,1015.08
2023-06-16T07:20:25.467Z,1015.08
2023-06-16T07:25:27.479Z,1015.01
2023-06-16T07:30:27.660Z,1015.06
2023-06-16T07:35:27.705Z,1015.02
2023-06-16T07:40:26.937Z,1015.09
2023-06-16T07:45:27.997Z,1015.06
2023-06-16T07:50:30.083Z,1014.98
2023-06-16T07:55:31.176Z,1014.93
2023-06-16T08:00:30.277Z,1014.90
2023-06-16T08:05:31.326Z,1014.84
2023-06-16T08:10:32.394Z,1014.85
2023-06-16T08:15:34.481Z,1014.84
2023-06-16T08:20:33.520Z,1014.72
2023-06-16T08:25:33.605Z,1014.77
2023-06-16T08:30:35.634Z,1014.66
2023-06-16T08:35:34.730Z,1014.71
2023-06-16T08:40:35.880Z,1014.70
2023-06-16T08:45:36.930Z,1014.74
2023-06-16T08:50:39.805Z,1014.73
2023-06-16T08:55:38.781Z,1014.68
2023-06-16T09:00:39.825Z,1014.74
2023-06-16T09:05:40.850Z,1014.67
2023-06-16T09:10:42.867Z,1014.62
2023-06-16T09:15:41.972Z,1014.64
2023-06-16T09:20:43.097Z,1014.61
2023-06-16T09:25:44.263Z,1014.58
2023-06-16T09:30:47.278Z,1014.54
2023-06-16T09:35:46.367Z,1014.51
2023-06-16T09:40:47.487Z,1014.42
2023-06-16T09:45:49.557Z,1014.40
2023-06-16T09:50:48.640Z,1014.41
2023-06-16T09:55:49.671Z,1014.35
2023-06-16T10:00:52.214Z,1014.33
2023-06-16T10:05:51.385Z,1014.28
2023-06-16T10:10:53.534Z,1014.22
2023-06-16T10:15:52.630Z,1014.13
2023-06-16T10:20:53.697Z,1014.04
2023-06-16T10:25:53.759Z,1014.07
2023-06-16T10:30:54.859Z,1013.99
2023-06-16T10:36:07.836Z,1013.94
2023-06-16T10:40:56.841Z,1013.93
2023-06-16T10:45:56.002Z,1013.90
2023-06-16T10:50:57.144Z,1013.92
2023-06-16T10:55:58.267Z,1013.86
2023-06-16T11:01:00.316Z,1013.84
2023-06-16T11:05:59.464Z,1013.79
2023-06-16T11:11:02.477Z,1013.73
2023-06-16T11:16:01.681Z,1013.74
2023-06-16T11:21:02.791Z,1013.84
2023-06-16T11:26:03.910Z,1013.79
2023-06-16T11:31:05.055Z,1013.91
2023-06-16T11:36:06.128Z,1013.79
2023-06-16T11:41:12.079Z,1013.81
2023-06-16T11:46:07.356Z,1013.80
2023-06-16T11:51:07.426Z,1013.83
2023-06-16T11:56:09.565Z,1013.90
2023-06-16T12:01:10.622Z,1013.91
2023-06-16T12:06:10.971Z,1013.83
2023-06-16T12:11:10.135Z,1013.83
2023-06-16T12:16:12.171Z,1013.85
2023-06-16T12:21:11.195Z,1013.79
2023-06-16T12:26:12.579Z,1013.74
2023-06-16T12:31:13.908Z,1013.72
2023-06-16T12:36:14.969Z,1013.67
2023-06-16T12:41:17.123Z,1013.63
2023-06-16T12:46:16.319Z,1013.55
2023-06-16T12:51:17.317Z,1013.59
2023-06-16T12:56:18.499Z,1013.60
2023-06-16T13:01:19.585Z,1013.59
2023-06-16T13:06:20.652Z,1013.61
2023-06-16T13:11:23.630Z,1013.60
2023-06-16T13:16:22.784Z,1013.55
2023-06-16T13:21:23.876Z,1013.49
2023-06-16T13:26:24.977Z,1013.52
2023-06-16T13:31:26.071Z,1013.52
2023-06-16T13:36:27.167Z,1013.53
2023-06-16T13:41:28.216Z,1013.54
2023-06-16T13:46:29.384Z,1013.50
2023-06-16T13:51:30.435Z,1013.43
2023-06-16T13:56:31.532Z,1013.45
2023-06-16T14:01:32.664Z,1013.44
2023-06-16T14:06:33.713Z,1013.38
2023-06-16T14:11:34.878Z,1013.36
2023-06-16T14:16:36.035Z,1013.31
2023-06-16T14:21:37.191Z,1013.21
2023-06-16T14:26:38.242Z,1013.13
2023-06-16T14:31:39.308Z,1013.17
2023-06-16T14:36:40.409Z,1013.17
2023-06-16T14:41:41.474Z,1013.24
2023-06-16T14:46:42.648Z,1013.07
2023-06-16T14:51:43.683Z,1013.13
2023-06-16T14:56:45.758Z,1013.03
2023-06-16T15:01:46.815Z,1013.10
2023-06-16T15:06:45.845Z,1013.02
2023-06-16T15:11:46.912Z,1013.03
2023-06-16T15:16:48.983Z,1012.94
2023-06-16T15:21:48.089Z,1012.93
2023-06-16T15:26:49.179Z,1012.89
2023-06-16T15:31:50.233Z,1012.83
2023-06-16T15:36:52.308Z,1012.85
2023-06-16T15:41:51.382Z,1012.88
2023-06-16T15:46:52.499Z,1012.83
2023-06-16T15:51:53.714Z,1012.79
2023-06-16T15:56:55.765Z,1012.73
2023-06-16T16:01:54.848Z,1012.74
2023-06-16T16:06:55.894Z,1012.67
2023-06-16T16:11:57.196Z,1012.64
2023-06-16T16:16:59.284Z,1012.67
2023-06-16T16:22:00.377Z,1012.64
2023-06-16T16:27:00.444Z,1012.64
2023-06-16T16:31:59.607Z,1012.58
2023-06-16T16:37:01.652Z,1012.58
2023-06-16T16:42:01.689Z,1012.55
2023-06-16T16:47:00.858Z,1012.57
2023-06-16T16:52:05.821Z,1012.55
2023-06-16T16:57:02.863Z,1012.61
2023-06-16T17:02:04.039Z,1012.58
2023-06-16T17:07:06.445Z,1012.63
2023-06-16T17:12:06.452Z,1012.62
2023-06-16T17:17:05.558Z,1012.69
2023-06-16T17:22:06.659Z,1012.70
2023-06-16T17:27:07.701Z,1012.93
2023-06-16T17:32:10.094Z,1012.90
2023-06-16T17:37:09.124Z,1012.88
2023-06-16T17:42:12.164Z,1012.80
2023-06-16T17:47:11.433Z,1012.84
2023-06-16T17:52:12.641Z,1012.94
2023-06-16T17:57:13.898Z,1012.97
2023-06-16T18:02:15.183Z,1013.00
2023-06-16T18:07:17.439Z,1012.95
2023-06-16T18:12:17.766Z,1012.97
2023-06-16T18:17:16.987Z,1012.91
2023-06-16T18:22:18.384Z,1012.89
2023-06-16T18:27:20.696Z,1012.91
2023-06-16T18:32:21.084Z,1012.97
2023-06-16T18:37:20.617Z,1012.96
2023-06-16T18:42:19.026Z,1012.96
2023-06-16T18:47:21.568Z,1012.95
2023-06-16T18:52:21.137Z,1013.00
2023-06-16T18:57:20.670Z,1012.97
2023-06-16T19:02:20.289Z,1012.97
2023-06-16T19:07:19.800Z,1013.01
2023-06-16T19:12:19.230Z,1013.00
2023-06-16T19:17:21.514Z,1013.03
2023-06-16T19:22:20.964Z,1013.00
2023-06-16T19:27:20.186Z,1013.07
2023-06-16T19:32:21.316Z,1013.19
2023-06-16T19:37:23.373Z,1013.22
2023-06-16T19:42:22.425Z,1013.33
2023-06-16T19:47:25.548Z,1013.30
2023-06-16T19:52:26.554Z,1013.45
2023-06-16T19:57:25.600Z,1013.45
2023-06-16T20:02:26.770Z,1013.51
2023-06-16T20:07:28.189Z,1013.48
2023-06-16T20:12:29.393Z,1013.56
2023-06-16T20:17:30.513Z,1013.63
2023-06-16T20:22:33.524Z,1013.66
2023-06-16T20:27:31.612Z,1013.77
2023-06-16T20:32:33.714Z,1013.79
2023-06-16T20:37:33.778Z,1013.79
2023-06-16T20:42:33.861Z,1013.85
2023-06-16T20:47:32.888Z,1013.98
2023-06-16T20:52:34.955Z,1013.99
2023-06-16T20:57:34.150Z,1014.00
2023-06-16T21:02:35.314Z,1014.07
2023-06-16T21:07:37.362Z,1014.06
2023-06-16T21:12:36.503Z,1014.02
2023-06-16T21:17:37.880Z,1013.96
2023-06-16T21:22:40.908Z,1014.06
2023-06-16T21:27:39.944Z,1014.06
2023-06-16T21:32:41.107Z,1014.01
2023-06-16T21:37:42.171Z,1014.07
2023-06-16T21:42:43.255Z,1014.06
2023-06-16T21:47:44.368Z,1014.09
2023-06-16T21:52:46.392Z,1014.07
2023-06-16T21:57:45.502Z,1014.01
2023-06-16T22:02:46.630Z,1014.08
2023-06-16T22:07:47.691Z,1014.07
2023-06-16T22:12:48.773Z,1014.06
2023-06-16T22:17:50.812Z,1014.01
2023-06-16T22:22:49.832Z,1014.04
2023-06-16T22:27:50.936Z,1013.94
2023-06-16T22:32:52.029Z,1013.90
2023-06-16T22:37:54.132Z,1013.93
2023-06-16T22:42:53.234Z,1014.02
2023-06-16T22:47:56.329Z,1013.99
2023-06-16T22:52:55.365Z,1013.96
2023-06-16T22:57:57.454Z,1013.88
2023-06-16T23:02:56.701Z,1013.90
2023-06-16T23:07:57.787Z,1013.84
2023-06-16T23:12:59.811Z,1013.91
2023-06-16T23:17:58.871Z,1013.88
2023-06-16T23:23:01.106Z,1013.94
2023-06-16T23:28:00.160Z,1014.00
2023-06-16T23:33:02.195Z,1013.95
2023-06-16T23:38:01.254Z,1013.89
2023-06-16T23:43:02.304Z,1013.91
2023-06-16T23:48:04.462Z,1013.94
2023-06-16T23:53:03.607Z,1013.96
2023-06-16T23:58:04.743Z,1013.94
